createdAt,value
2019-04-03T00:00:40.655Z,1001.36
2019-04-03T00:01:40.553Z,1001.32
2019-04-03T00:02:40.453Z,1001.26
2019-04-03T00:03:40.352Z,1001.27
2019-04-03T00:04:40.246Z,1001.27
2019-04-03T00:05:40.153Z,1001.27
2019-04-03T00:06:40.042Z,1001.30
2019-04-03T00:07:39.943Z,1001.31
2019-04-03T00:08:39.840Z,1001.32
2019-04-03T00:09:39.739Z,1001.30
2019-04-03T00:10:39.634Z,1001.35
2019-04-03T00:11:40.301Z,1001.44
2019-04-03T00:12:41.085Z,1001.43
2019-04-03T00:13:41.526Z,1001.44
2019-04-03T00:14:42.354Z,1001.41
2019-04-03T00:15:39.408Z,1001.42
2019-04-03T00:16:39.024Z,1001.46
2019-04-03T00:17:38.926Z,1001.46
2019-04-03T00:18:38.822Z,1001.48
2019-04-03T00:19:38.882Z,1001.47
2019-04-03T00:20:38.622Z,1001.43
2019-04-03T00:21:38.518Z,1001.41
2019-04-03T00:22:38.416Z,1001.42
2019-04-03T00:23:38.311Z,1001.41
2019-04-03T00:24:38.213Z,1001.40
2019-04-03T00:25:38.107Z,1001.43
2019-04-03T00:26:38.005Z,1001.47
2019-04-03T00:27:37.955Z,1001.49
2019-04-03T00:28:37.802Z,1001.46
2019-04-03T00:29:37.701Z,1001.46
2019-04-03T00:30:37.601Z,1001.47
2019-04-03T00:31:37.498Z,1001.41
2019-04-03T00:32:37.446Z,1001.40
2019-04-03T00:33:37.292Z,1001.48
2019-04-03T00:34:37.321Z,1001.44
2019-04-03T00:35:37.158Z,1001.45
2019-04-03T00:36:36.985Z,1001.42
2019-04-03T00:37:36.885Z,1001.40
2019-04-03T00:38:36.794Z,1001.42
2019-04-03T00:39:36.681Z,1001.43
2019-04-03T00:40:36.581Z,1001.42
2019-04-03T00:41:36.477Z,1001.43
2019-04-03T00:42:36.375Z,1001.39
2019-04-03T00:43:36.273Z,1001.35
2019-04-03T00:44:36.173Z,1001.39
2019-04-03T00:45:36.071Z,1001.39
2019-04-03T00:46:36.089Z,1001.39
2019-04-03T00:47:35.868Z,1001.39
2019-04-03T00:48:35.766Z,1001.35
2019-04-03T00:49:35.664Z,1001.36
2019-04-03T00:50:35.560Z,1001.35
2019-04-03T00:51:35.461Z,1001.37
2019-04-03T00:52:35.359Z,1001.35
2019-04-03T00:53:35.259Z,1001.41
2019-04-03T00:54:35.320Z,1001.43
2019-04-03T00:55:35.127Z,1001.44
2019-04-03T00:56:34.957Z,1001.39
2019-04-03T00:57:34.858Z,1001.39
2019-04-03T00:58:34.750Z,1001.38
2019-04-03T00:59:34.646Z,1001.36
2019-04-03T01:00:34.545Z,1001.41
2019-04-03T01:01:34.448Z,1001.37
2019-04-03T01:02:34.341Z,1001.39
2019-04-03T01:03:34.242Z,1001.40
2019-04-03T01:04:34.140Z,1001.39
2019-04-03T01:05:34.036Z,1001.39
2019-04-03T01:06:33.935Z,1001.38
2019-04-03T01:07:33.833Z,1001.38
2019-04-03T01:08:33.938Z,1001.35
2019-04-03T01:09:33.630Z,1001.36
2019-04-03T01:10:33.579Z,1001.36
2019-04-03T01:11:33.426Z,1001.27
2019-04-03T01:12:33.324Z,1001.30
2019-04-03T01:13:33.229Z,1001.27
2019-04-03T01:14:33.192Z,1001.28
2019-04-03T01:15:33.042Z,1001.26
2019-04-03T01:16:33.576Z,1001.29
2019-04-03T01:17:34.888Z,1001.29
2019-04-03T01:18:34.202Z,1001.29
2019-04-03T01:19:32.613Z,1001.29
2019-04-03T01:20:32.515Z,1001.28
2019-04-03T01:21:32.407Z,1001.22
2019-04-03T01:22:32.305Z,1001.20
2019-04-03T01:23:32.205Z,1001.15
2019-04-03T01:24:32.141Z,1001.10
2019-04-03T01:25:32.002Z,1001.11
2019-04-03T01:26:31.901Z,1001.13
2019-04-03T01:27:31.797Z,1001.13
2019-04-03T01:28:31.892Z,1001.17
2019-04-03T01:29:31.596Z,1001.14
2019-04-03T01:30:31.492Z,1001.15
2019-04-03T01:31:31.569Z,1001.11
2019-04-03T01:32:31.292Z,1001.07
2019-04-03T01:33:31.234Z,1001.12
2019-04-03T01:34:31.149Z,1001.09
2019-04-03T01:35:30.981Z,1001.08
2019-04-03T01:36:30.878Z,1001.07
2019-04-03T01:37:30.779Z,1001.03
2019-04-03T01:38:30.675Z,1001.00
2019-04-03T01:39:30.574Z,1000.97
2019-04-03T01:40:30.469Z,1000.95
2019-04-03T01:41:30.369Z,1000.94
2019-04-03T01:42:30.265Z,1000.91
2019-04-03T01:43:30.164Z,1000.92
2019-04-03T01:44:30.063Z,1000.90
2019-04-03T01:45:29.961Z,1000.86
2019-04-03T01:46:29.985Z,1000.82
2019-04-03T01:47:29.863Z,1000.82
2019-04-03T01:48:29.655Z,1000.79
2019-04-03T01:49:29.629Z,1000.82
2019-04-03T01:50:29.449Z,1000.80
2019-04-03T01:51:29.923Z,1000.80
2019-04-03T01:52:31.025Z,1000.80
2019-04-03T01:53:29.151Z,1000.76
2019-04-03T01:54:29.071Z,1000.73
2019-04-03T01:55:28.937Z,1000.71
2019-04-03T01:56:28.836Z,1000.71
2019-04-03T01:57:28.736Z,1000.64
2019-04-03T01:58:28.632Z,1000.61
2019-04-03T01:59:28.529Z,1000.61
2019-04-03T02:00:28.430Z,1000.59
2019-04-03T02:01:28.324Z,1000.58
2019-04-03T02:02:28.220Z,1000.54
2019-04-03T02:03:28.119Z,1000.52
2019-04-03T02:04:28.024Z,1000.50
2019-04-03T02:05:27.915Z,1000.49
2019-04-03T02:06:27.815Z,1000.50
2019-04-03T02:07:28.010Z,1000.53
2019-04-03T02:08:27.609Z,1000.55
2019-04-03T02:09:27.506Z,1000.54
2019-04-03T02:10:27.446Z,1000.60
2019-04-03T02:11:27.299Z,1000.58
2019-04-03T02:12:27.200Z,1000.54
2019-04-03T02:13:27.103Z,1000.52
2019-04-03T02:14:27.069Z,1000.52
2019-04-03T02:15:26.898Z,1000.46
2019-04-03T02:16:26.969Z,1000.47
2019-04-03T02:17:27.184Z,1000.45
2019-04-03T02:18:26.582Z,1000.49
2019-04-03T02:19:26.670Z,1000.54
2019-04-03T02:20:27.154Z,1000.60
2019-04-03T02:21:27.714Z,1000.68
2019-04-03T02:22:27.516Z,1000.69
2019-04-03T02:23:26.098Z,1000.67
2019-04-03T02:24:25.969Z,1000.60
2019-04-03T02:25:25.867Z,1000.58
2019-04-03T02:26:25.765Z,1000.56
2019-04-03T02:27:25.724Z,1000.61
2019-04-03T02:28:25.594Z,1000.61
2019-04-03T02:29:25.455Z,1000.63
2019-04-03T02:30:25.359Z,1000.59
2019-04-03T02:31:25.253Z,1000.58
2019-04-03T02:32:25.147Z,1000.58
2019-04-03T02:33:28.560Z,1000.54
2019-04-03T02:34:25.000Z,1000.55
2019-04-03T02:35:24.844Z,1000.56
2019-04-03T02:36:24.747Z,1000.55
2019-04-03T02:37:24.638Z,1000.59
2019-04-03T02:38:24.537Z,1000.54
2019-04-03T02:39:27.076Z,1000.48
2019-04-03T02:40:24.344Z,1000.50
2019-04-03T02:41:24.434Z,1000.54
2019-04-03T02:42:24.123Z,1000.48
2019-04-03T02:43:24.287Z,1000.51
2019-04-03T02:44:23.917Z,1000.45
2019-04-03T02:45:24.529Z,1000.48
2019-04-03T02:46:26.931Z,1000.43
2019-04-03T02:47:23.821Z,1000.43
2019-04-03T02:48:23.508Z,1000.46
2019-04-03T02:49:23.413Z,1000.45
2019-04-03T02:50:23.304Z,1000.48
2019-04-03T02:51:23.200Z,1000.48
2019-04-03T02:52:25.307Z,1000.45
2019-04-03T02:53:23.067Z,1000.40
2019-04-03T02:54:22.901Z,1000.40
2019-04-03T02:55:22.788Z,1000.41
2019-04-03T02:56:22.836Z,1000.34
2019-04-03T02:57:22.589Z,1000.36
2019-04-03T02:58:23.044Z,1000.38
2019-04-03T02:59:25.111Z,1000.38
2019-04-03T03:00:22.281Z,1000.38
2019-04-03T03:01:22.173Z,1000.41
2019-04-03T03:02:22.518Z,1000.45
2019-04-03T03:03:21.974Z,1000.42
2019-04-03T03:04:22.333Z,1000.42
2019-04-03T03:05:21.762Z,1000.38
2019-04-03T03:06:21.687Z,1000.38
2019-04-03T03:07:21.561Z,1000.41
2019-04-03T03:08:23.049Z,1000.44
2019-04-03T03:09:21.351Z,1000.47
2019-04-03T03:10:21.392Z,1000.43
2019-04-03T03:11:23.260Z,1000.47
2019-04-03T03:12:21.157Z,1000.48
2019-04-03T03:13:20.970Z,1000.46
2019-04-03T03:14:20.834Z,1000.48
2019-04-03T03:15:20.734Z,1000.46
2019-04-03T03:16:20.650Z,1000.47
2019-04-03T03:17:22.552Z,1000.49
2019-04-03T03:18:20.472Z,1000.42
2019-04-03T03:19:20.543Z,1000.45
2019-04-03T03:20:20.223Z,1000.46
2019-04-03T03:21:20.386Z,1000.46
2019-04-03T03:22:20.014Z,1000.45
2019-04-03T03:23:22.453Z,1000.49
2019-04-03T03:24:19.850Z,1000.50
2019-04-03T03:25:19.709Z,1000.45
2019-04-03T03:26:19.606Z,1000.48
2019-04-03T03:27:19.501Z,1000.47
2019-04-03T03:28:19.446Z,1000.48
2019-04-03T03:29:24.096Z,1000.50
2019-04-03T03:30:36.312Z,1000.49
2019-04-03T03:31:19.436Z,1000.48
2019-04-03T03:32:25.966Z,1000.49
2019-04-03T03:33:32.687Z,1000.46
2019-04-03T03:34:43.658Z,1000.47
2019-04-03T03:35:27.206Z,1000.43
2019-04-03T03:36:22.693Z,1000.43
2019-04-03T03:37:18.700Z,1000.45
2019-04-03T03:38:18.400Z,1000.43
2019-04-03T03:39:18.318Z,1000.41
2019-04-03T03:40:18.186Z,1000.40
2019-04-03T03:41:22.189Z,1000.38
2019-04-03T03:42:17.960Z,1000.38
2019-04-03T03:43:17.857Z,1000.43
2019-04-03T03:44:17.755Z,1000.38
2019-04-03T03:45:19.799Z,1000.41
2019-04-03T03:46:18.017Z,1000.33
2019-04-03T03:47:17.447Z,1000.35
2019-04-03T03:48:17.497Z,1000.34
2019-04-03T03:49:17.956Z,1000.34
2019-04-03T03:50:17.430Z,1000.30
2019-04-03T03:51:17.044Z,1000.35
2019-04-03T03:52:16.989Z,1000.30
2019-04-03T03:53:16.844Z,1000.26
2019-04-03T03:54:18.439Z,1000.35
2019-04-03T03:55:16.621Z,1000.30
2019-04-03T03:56:16.519Z,1000.31
2019-04-03T03:57:16.437Z,1000.28
2019-04-03T03:58:16.313Z,1000.30
2019-04-03T03:59:17.606Z,1000.30
2019-04-03T04:00:16.104Z,1000.29
2019-04-03T04:01:16.004Z,1000.31
2019-04-03T04:02:15.998Z,1000.33
2019-04-03T04:03:16.001Z,1000.35
2019-04-03T04:04:16.132Z,1000.34
2019-04-03T04:05:19.625Z,1000.36
2019-04-03T04:06:15.500Z,1000.36
2019-04-03T04:07:15.386Z,1000.36
2019-04-03T04:08:15.282Z,1000.34
2019-04-03T04:09:17.475Z,1000.35
2019-04-03T04:10:15.389Z,1000.36
2019-04-03T04:11:15.001Z,1000.33
2019-04-03T04:12:15.251Z,1000.34
2019-04-03T04:13:15.741Z,1000.28
2019-04-03T04:14:14.976Z,1000.34
2019-04-03T04:15:14.565Z,1000.39
2019-04-03T04:16:14.462Z,1000.38
2019-04-03T04:17:17.096Z,1000.38
2019-04-03T04:18:15.351Z,1000.43
2019-04-03T04:19:14.151Z,1000.42
2019-04-03T04:20:14.146Z,1000.48
2019-04-03T04:21:13.947Z,1000.42
2019-04-03T04:22:16.336Z,1000.45
2019-04-03T04:23:13.882Z,1000.49
2019-04-03T04:24:13.634Z,1000.46
2019-04-03T04:25:13.528Z,1000.40
2019-04-03T04:26:13.532Z,1000.39
2019-04-03T04:27:13.366Z,1000.38
2019-04-03T04:28:13.224Z,1000.38
2019-04-03T04:29:13.119Z,1000.34
2019-04-03T04:30:13.016Z,1000.31
2019-04-03T04:31:13.373Z,1000.31
2019-04-03T04:32:15.006Z,1000.30
2019-04-03T04:33:12.710Z,1000.25
2019-04-03T04:34:12.604Z,1000.24
2019-04-03T04:35:12.503Z,1000.23
2019-04-03T04:36:12.446Z,1000.19
2019-04-03T04:37:12.538Z,1000.20
2019-04-03T04:38:12.192Z,1000.18
2019-04-03T04:39:12.089Z,1000.16
2019-04-03T04:40:12.091Z,1000.19
2019-04-03T04:41:11.887Z,1000.19
2019-04-03T04:42:11.781Z,1000.20
2019-04-03T04:43:11.676Z,1000.22
2019-04-03T04:44:14.155Z,1000.17
2019-04-03T04:45:11.800Z,1000.19
2019-04-03T04:46:13.139Z,1000.21
2019-04-03T04:47:11.502Z,1000.15
2019-04-03T04:48:11.321Z,1000.19
2019-04-03T04:49:11.061Z,1000.20
2019-04-03T04:50:10.970Z,1000.16
2019-04-03T04:51:10.904Z,1000.17
2019-04-03T04:52:10.768Z,1000.14
2019-04-03T04:53:10.648Z,1000.16
2019-04-03T04:54:10.574Z,1000.17
2019-04-03T04:55:10.581Z,1000.18
2019-04-03T04:56:10.337Z,1000.20
2019-04-03T04:57:10.237Z,1000.12
2019-04-03T04:58:11.530Z,1000.19
2019-04-03T04:59:10.030Z,1000.23
2019-04-03T05:00:09.929Z,1000.22
2019-04-03T05:01:10.060Z,1000.25
2019-04-03T05:02:09.725Z,1000.24
2019-04-03T05:03:09.743Z,1000.24
2019-04-03T05:04:09.517Z,1000.29
2019-04-03T05:05:09.670Z,1000.24
2019-04-03T05:06:09.309Z,1000.28
2019-04-03T05:07:09.343Z,1000.25
2019-04-03T05:08:09.113Z,1000.27
2019-04-03T05:09:09.002Z,1000.22
2019-04-03T05:10:08.921Z,1000.23
2019-04-03T05:11:08.828Z,1000.23
2019-04-03T05:12:09.754Z,1000.29
2019-04-03T05:13:08.591Z,1000.25
2019-04-03T05:14:08.497Z,1000.26
2019-04-03T05:15:08.384Z,1000.27
2019-04-03T05:16:08.283Z,1000.26
2019-04-03T05:17:08.180Z,1000.23
2019-04-03T05:18:08.079Z,1000.24
2019-04-03T05:19:10.234Z,1000.20
2019-04-03T05:20:07.875Z,1000.18
2019-04-03T05:21:07.774Z,1000.20
2019-04-03T05:22:07.666Z,1000.15
2019-04-03T05:23:07.562Z,1000.14
2019-04-03T05:24:12.759Z,1000.19
2019-04-03T05:25:07.455Z,1000.18
2019-04-03T05:26:07.256Z,1000.17
2019-04-03T05:27:07.935Z,1000.17
2019-04-03T05:28:07.051Z,1000.17
2019-04-03T05:29:06.951Z,1000.18
2019-04-03T05:30:07.060Z,1000.16
2019-04-03T05:31:08.159Z,1000.14
2019-04-03T05:32:08.038Z,1000.14
2019-04-03T05:33:06.538Z,1000.14
2019-04-03T05:34:06.645Z,1000.11
2019-04-03T05:35:06.333Z,1000.09
2019-04-03T05:36:06.230Z,1000.16
2019-04-03T05:37:06.164Z,1000.16
2019-04-03T05:38:06.023Z,1000.13
2019-04-03T05:39:05.920Z,1000.13
2019-04-03T05:40:05.818Z,1000.14
2019-04-03T05:41:05.980Z,1000.12
2019-04-03T05:42:05.742Z,1000.12
2019-04-03T05:43:05.509Z,1000.13
2019-04-03T05:44:05.409Z,1000.10
2019-04-03T05:45:05.305Z,1000.11
2019-04-03T05:46:05.739Z,1000.11
2019-04-03T05:47:07.378Z,1000.07
2019-04-03T05:48:05.132Z,1000.10
2019-04-03T05:49:04.895Z,1000.17
2019-04-03T05:50:04.848Z,1000.15
2019-04-03T05:51:04.770Z,1000.14
2019-04-03T05:52:04.728Z,1000.15
2019-04-03T05:53:06.116Z,1000.12
2019-04-03T05:54:04.382Z,1000.20
2019-04-03T05:55:04.279Z,1000.12
2019-04-03T05:56:04.176Z,1000.18
2019-04-03T05:57:04.076Z,1000.22
2019-04-03T05:58:04.128Z,1000.18
2019-04-03T05:59:03.870Z,1000.24
2019-04-03T06:00:06.101Z,1000.24
2019-04-03T06:01:06.391Z,1000.25
2019-04-03T06:02:14.149Z,1000.27
2019-04-03T06:03:03.532Z,1000.28
2019-04-03T06:04:03.358Z,1000.29
2019-04-03T06:05:06.289Z,1000.27
2019-04-03T06:06:03.153Z,1000.32
2019-04-03T06:07:03.054Z,1000.33
2019-04-03T06:08:02.951Z,1000.35
2019-04-03T06:09:02.850Z,1000.33
2019-04-03T06:10:02.889Z,1000.29
2019-04-03T06:11:03.994Z,1000.28
2019-04-03T06:12:02.674Z,1000.26
2019-04-03T06:13:05.140Z,1000.30
2019-04-03T06:14:02.336Z,1000.28
2019-04-03T06:15:02.249Z,1000.27
2019-04-03T06:16:02.131Z,1000.24
2019-04-03T06:17:02.038Z,1000.28
2019-04-03T06:18:01.928Z,1000.25
2019-04-03T06:19:01.881Z,1000.24
2019-04-03T06:20:01.728Z,1000.27
2019-04-03T06:21:01.633Z,1000.27
2019-04-03T06:22:01.524Z,1000.29
2019-04-03T06:23:01.422Z,1000.26
2019-04-03T06:24:01.579Z,1000.26
2019-04-03T06:25:01.223Z,1000.24
2019-04-03T06:26:02.186Z,1000.24
2019-04-03T06:27:01.018Z,1000.24
2019-04-03T06:28:00.918Z,1000.29
2019-04-03T06:29:00.820Z,1000.27
2019-04-03T06:30:00.878Z,1000.30
2019-04-03T06:31:00.627Z,1000.28
2019-04-03T06:32:00.708Z,1000.22
2019-04-03T06:33:01.979Z,1000.24
2019-04-03T06:34:00.317Z,1000.23
2019-04-03T06:35:00.229Z,1000.23
2019-04-03T06:36:00.121Z,1000.19
2019-04-03T06:37:00.020Z,1000.10
2019-04-03T06:38:00.145Z,1000.17
2019-04-03T06:38:59.820Z,1000.12
2019-04-03T06:40:02.327Z,1000.13
2019-04-03T06:40:59.625Z,1000.16
2019-04-03T06:41:59.522Z,1000.17
2019-04-03T06:42:59.425Z,1000.16
2019-04-03T06:43:59.324Z,1000.12
2019-04-03T06:44:59.233Z,1000.15
2019-04-03T06:45:59.125Z,1000.18
2019-04-03T06:47:00.697Z,1000.16
2019-04-03T06:47:58.931Z,1000.21
2019-04-03T06:48:58.836Z,1000.17
2019-04-03T06:49:58.792Z,1000.18
2019-04-03T06:50:58.685Z,1000.14
2019-04-03T06:51:58.598Z,1000.15
2019-04-03T06:52:58.444Z,1000.14
2019-04-03T06:53:59.570Z,1000.11
2019-04-03T06:54:58.404Z,1000.15
2019-04-03T06:55:58.139Z,1000.16
2019-04-03T06:56:58.037Z,1000.18
2019-04-03T06:57:57.943Z,1000.18
2019-04-03T06:58:57.839Z,1000.18
2019-04-03T06:59:57.795Z,1000.21
2019-04-03T07:00:57.643Z,1000.24
2019-04-03T07:01:57.546Z,1000.25
2019-04-03T07:02:57.482Z,1000.26
2019-04-03T07:03:57.348Z,1000.25
2019-04-03T07:04:57.253Z,1000.29
2019-04-03T07:05:57.150Z,1000.25
2019-04-03T07:06:57.054Z,1000.21
2019-04-03T07:07:56.957Z,1000.21
2019-04-03T07:08:57.082Z,1000.24
2019-04-03T07:09:57.204Z,1000.28
2019-04-03T07:10:56.735Z,1000.30
2019-04-03T07:11:57.594Z,1000.30
2019-04-03T07:12:56.468Z,1000.31
2019-04-03T07:13:56.372Z,1000.32
2019-04-03T07:14:56.537Z,1000.34
2019-04-03T07:15:56.863Z,1000.32
2019-04-03T07:16:56.076Z,1000.32
2019-04-03T07:17:55.982Z,1000.31
2019-04-03T07:18:55.881Z,1000.28
2019-04-03T07:19:55.785Z,1000.27
2019-04-03T07:20:55.686Z,1000.22
2019-04-03T07:21:55.978Z,1000.22
2019-04-03T07:22:56.987Z,1000.16
2019-04-03T07:23:55.536Z,1000.19
2019-04-03T07:24:55.293Z,1000.18
2019-04-03T07:25:55.384Z,1000.18
2019-04-03T07:26:55.096Z,1000.17
2019-04-03T07:27:55.008Z,1000.19
2019-04-03T07:28:54.901Z,1000.16
2019-04-03T07:29:54.911Z,1000.17
2019-04-03T07:30:54.704Z,1000.22
2019-04-03T07:31:55.353Z,1000.17
2019-04-03T07:32:57.146Z,1000.24
2019-04-03T07:33:57.185Z,1000.25
2019-04-03T07:34:54.427Z,1000.25
2019-04-03T07:35:54.217Z,1000.25
2019-04-03T07:36:54.153Z,1000.28
2019-04-03T07:37:54.014Z,1000.25
2019-04-03T07:38:53.918Z,1000.27
2019-04-03T07:39:53.817Z,1000.24
2019-04-03T07:40:54.036Z,1000.25
2019-04-03T07:41:54.747Z,1000.30
2019-04-03T07:42:55.356Z,1000.27
2019-04-03T07:43:53.429Z,1000.24
2019-04-03T07:44:53.617Z,1000.27
2019-04-03T07:45:53.224Z,1000.28
2019-04-03T07:46:54.973Z,1000.24
2019-04-03T07:47:53.031Z,1000.26
2019-04-03T07:48:52.932Z,1000.29
2019-04-03T07:49:52.832Z,1000.27
2019-04-03T07:50:53.034Z,1000.17
2019-04-03T07:51:52.991Z,1000.25
2019-04-03T07:52:52.554Z,1000.25
2019-04-03T07:53:52.620Z,1000.24
2019-04-03T07:54:52.925Z,1000.22
2019-04-03T07:55:54.821Z,1000.18
2019-04-03T07:56:52.139Z,1000.21
2019-04-03T07:57:52.039Z,1000.22
2019-04-03T07:58:52.261Z,1000.24
2019-04-03T07:59:51.841Z,1000.19
2019-04-03T08:00:51.741Z,1000.21
2019-04-03T08:01:51.646Z,1000.22
2019-04-03T08:02:51.545Z,1000.19
2019-04-03T08:03:52.098Z,1000.20
2019-04-03T08:04:51.493Z,1000.25
2019-04-03T08:05:51.250Z,1000.20
2019-04-03T08:06:51.151Z,1000.26
2019-04-03T08:07:51.054Z,1000.30
2019-04-03T08:09:00.819Z,1000.27
2019-04-03T08:09:50.857Z,1000.25
2019-04-03T08:10:50.756Z,1000.28
2019-04-03T08:11:50.660Z,1000.29
2019-04-03T08:12:50.603Z,1000.31
2019-04-03T08:13:50.461Z,1000.29
2019-04-03T08:14:50.369Z,1000.29
2019-04-03T08:15:50.265Z,1000.31
2019-04-03T08:16:50.182Z,1000.32
2019-04-03T08:17:50.825Z,1000.31
2019-04-03T08:18:52.061Z,1000.30
2019-04-03T08:19:49.872Z,1000.33
2019-04-03T08:20:49.960Z,1000.33
2019-04-03T08:21:49.672Z,1000.26
2019-04-03T08:22:49.577Z,1000.23
2019-04-03T08:23:49.477Z,1000.27
2019-04-03T08:24:52.199Z,1000.22
2019-04-03T08:25:49.286Z,1000.24
2019-04-03T08:26:51.152Z,1000.22
2019-04-03T08:27:49.371Z,1000.21
2019-04-03T08:28:49.075Z,1000.18
2019-04-03T08:29:48.892Z,1000.19
2019-04-03T08:30:49.009Z,1000.17
2019-04-03T08:31:49.025Z,1000.16
2019-04-03T08:32:49.070Z,1000.15
2019-04-03T08:33:48.622Z,1000.12
2019-04-03T08:34:48.765Z,1000.11
2019-04-03T08:35:48.300Z,1000.06
2019-04-03T08:36:48.203Z,1000.04
2019-04-03T08:37:48.102Z,1000.04
2019-04-03T08:38:48.013Z,1000.02
2019-04-03T08:39:49.141Z,1000.01
2019-04-03T08:40:48.077Z,1000.04
2019-04-03T08:41:47.711Z,1000.00
2019-04-03T08:42:47.611Z,1000.03
2019-04-03T08:43:47.515Z,999.97
2019-04-03T08:44:47.419Z,1000.03
2019-04-03T08:45:47.418Z,1000.00
2019-04-03T08:46:47.483Z,1000.05
2019-04-03T08:47:47.120Z,1000.02
2019-04-03T08:48:47.021Z,999.95
2019-04-03T08:49:46.925Z,1000.01
2019-04-03T08:50:46.826Z,1000.01
2019-04-03T08:51:46.743Z,999.93
2019-04-03T08:52:46.739Z,999.92
2019-04-03T08:53:46.568Z,999.95
2019-04-03T08:54:46.432Z,999.95
2019-04-03T08:55:46.897Z,999.99
2019-04-03T08:56:48.312Z,999.89
2019-04-03T08:57:46.907Z,999.95
2019-04-03T08:58:46.074Z,999.92
2019-04-03T08:59:46.123Z,999.95
2019-04-03T09:00:45.845Z,999.94
2019-04-03T09:01:45.977Z,999.90
2019-04-03T09:02:45.646Z,999.91
2019-04-03T09:03:46.393Z,999.91
2019-04-03T09:04:47.498Z,999.96
2019-04-03T09:05:45.370Z,999.93
2019-04-03T09:06:45.255Z,999.91
2019-04-03T09:07:45.190Z,999.93
2019-04-03T09:08:45.058Z,999.95
2019-04-03T09:09:44.956Z,999.91
2019-04-03T09:10:44.860Z,999.92
2019-04-03T09:11:44.764Z,999.85
2019-04-03T09:12:44.664Z,999.87
2019-04-03T09:13:44.921Z,999.92
2019-04-03T09:14:44.522Z,999.89
2019-04-03T09:15:44.370Z,999.91
2019-04-03T09:16:44.273Z,999.90
2019-04-03T09:17:44.174Z,999.91
2019-04-03T09:18:44.167Z,999.86
2019-04-03T09:19:43.976Z,999.87
2019-04-03T09:20:44.211Z,999.84
2019-04-03T09:21:44.956Z,999.85
2019-04-03T09:22:43.683Z,999.81
2019-04-03T09:23:43.585Z,999.82
2019-04-03T09:24:43.489Z,999.76
2019-04-03T09:25:43.391Z,999.79
2019-04-03T09:26:43.292Z,999.74
2019-04-03T09:27:43.251Z,999.74
2019-04-03T09:28:43.096Z,999.68
2019-04-03T09:29:45.159Z,999.74
2019-04-03T09:30:42.900Z,999.72
2019-04-03T09:31:42.977Z,999.72
2019-04-03T09:32:42.705Z,999.65
2019-04-03T09:33:42.762Z,999.70
2019-04-03T09:34:42.555Z,999.58
2019-04-03T09:35:43.025Z,999.53
2019-04-03T09:36:42.318Z,999.57
2019-04-03T09:37:45.075Z,999.52
2019-04-03T09:38:42.123Z,999.52
2019-04-03T09:39:42.687Z,999.55
2019-04-03T09:40:41.925Z,999.52
2019-04-03T09:41:41.830Z,999.55
2019-04-03T09:42:41.732Z,999.51
2019-04-03T09:43:41.634Z,999.38
2019-04-03T09:44:41.780Z,999.40
2019-04-03T09:45:41.438Z,999.42
2019-04-03T09:46:41.348Z,999.32
2019-04-03T09:47:41.246Z,999.43
2019-04-03T09:48:41.274Z,999.44
2019-04-03T09:49:43.456Z,999.43
2019-04-03T09:50:41.125Z,999.48
2019-04-03T09:51:40.856Z,999.51
2019-04-03T09:52:48.481Z,999.49
2019-04-03T09:53:40.661Z,999.50
2019-04-03T09:54:40.630Z,999.48
2019-04-03T09:55:40.565Z,999.45
2019-04-03T09:56:49.795Z,999.43
2019-04-03T09:57:40.274Z,999.40
2019-04-03T09:58:40.178Z,999.41
2019-04-03T09:59:40.079Z,999.33
2019-04-03T10:00:41.993Z,999.37
2019-04-03T10:01:39.883Z,999.46
2019-04-03T10:02:40.096Z,999.49
2019-04-03T10:03:39.694Z,999.38
2019-04-03T10:04:39.895Z,999.47
2019-04-03T10:05:39.500Z,999.41
2019-04-03T10:06:39.522Z,999.43
2019-04-03T10:07:39.301Z,999.35
2019-04-03T10:08:40.343Z,999.35
2019-04-03T10:09:39.224Z,999.32
2019-04-03T10:10:39.093Z,999.35
2019-04-03T10:11:39.699Z,999.31
2019-04-03T10:12:39.104Z,999.29
2019-04-03T10:13:38.719Z,999.22
2019-04-03T10:14:38.623Z,999.29
2019-04-03T10:15:38.526Z,999.25
2019-04-03T10:16:38.524Z,999.28
2019-04-03T10:17:38.534Z,999.26
2019-04-03T10:18:39.045Z,999.28
2019-04-03T10:19:38.135Z,999.21
2019-04-03T10:20:38.040Z,999.26
2019-04-03T10:21:37.944Z,999.26
2019-04-03T10:22:37.844Z,999.28
2019-04-03T10:23:37.746Z,999.28
2019-04-03T10:24:37.650Z,999.29
2019-04-03T10:25:38.005Z,999.23
2019-04-03T10:26:39.221Z,999.24
2019-04-03T10:27:37.361Z,999.25
2019-04-03T10:28:37.264Z,999.14
2019-04-03T10:29:37.166Z,999.18
2019-04-03T10:30:37.264Z,999.19
2019-04-03T10:31:37.326Z,999.17
2019-04-03T10:32:36.876Z,999.16
2019-04-03T10:33:36.782Z,999.12
2019-04-03T10:34:36.718Z,999.20
2019-04-03T10:35:38.681Z,999.20
2019-04-03T10:36:36.525Z,999.18
2019-04-03T10:37:36.641Z,999.15
2019-04-03T10:38:36.298Z,999.16
2019-04-03T10:39:36.202Z,999.12
2019-04-03T10:40:36.422Z,999.15
2019-04-03T10:41:36.195Z,999.04
2019-04-03T10:42:35.913Z,999.06
2019-04-03T10:43:37.301Z,999.02
2019-04-03T10:44:35.719Z,999.01
2019-04-03T10:45:35.884Z,999.04
2019-04-03T10:46:35.531Z,999.04
2019-04-03T10:47:42.363Z,999.04
2019-04-03T10:48:35.337Z,998.99
2019-04-03T10:49:35.242Z,998.97
2019-04-03T10:50:37.900Z,998.97
2019-04-03T10:51:35.087Z,999.00
2019-04-03T10:52:34.953Z,998.96
2019-04-03T10:53:35.198Z,998.99
2019-04-03T10:54:37.400Z,998.98
2019-04-03T10:55:34.745Z,998.97
2019-04-03T10:56:34.572Z,998.97
2019-04-03T10:57:34.989Z,998.99
2019-04-03T10:58:34.522Z,998.93
2019-04-03T10:59:34.285Z,998.94
2019-04-03T11:00:34.191Z,998.91
2019-04-03T11:01:34.095Z,998.89
2019-04-03T11:02:33.999Z,998.84
2019-04-03T11:03:33.963Z,998.87
2019-04-03T11:04:34.016Z,998.85
2019-04-03T11:05:33.756Z,998.82
2019-04-03T11:06:35.282Z,998.87
2019-04-03T11:07:33.525Z,998.79
2019-04-03T11:08:33.728Z,998.80
2019-04-03T11:09:33.385Z,998.76
2019-04-03T11:10:33.251Z,998.76
2019-04-03T11:11:33.389Z,998.76
2019-04-03T11:12:33.316Z,998.71
2019-04-03T11:13:34.360Z,998.71
2019-04-03T11:14:32.866Z,998.65
2019-04-03T11:15:32.773Z,998.64
2019-04-03T11:16:32.680Z,998.60
2019-04-03T11:17:32.896Z,998.59
2019-04-03T11:18:32.501Z,998.52
2019-04-03T11:19:32.429Z,998.55
2019-04-03T11:20:32.388Z,998.51
2019-04-03T11:21:32.271Z,998.53
2019-04-03T11:22:41.072Z,998.46
2019-04-03T11:23:40.071Z,998.46
2019-04-03T11:24:31.952Z,998.42
2019-04-03T11:25:31.839Z,998.35
2019-04-03T11:26:32.029Z,998.30
2019-04-03T11:27:42.805Z,998.29
2019-04-03T11:28:31.694Z,998.31
2019-04-03T11:29:31.663Z,998.31
2019-04-03T11:30:31.712Z,998.35
2019-04-03T11:31:33.170Z,998.42
2019-04-03T11:32:31.177Z,998.31
2019-04-03T11:33:31.085Z,998.24
2019-04-03T11:34:31.078Z,998.27
2019-04-03T11:35:30.896Z,998.20
2019-04-03T11:36:31.241Z,998.18
2019-04-03T11:37:33.076Z,998.15
2019-04-03T11:38:30.610Z,998.19
2019-04-03T11:39:30.519Z,998.11
2019-04-03T11:40:30.425Z,998.19
2019-04-03T11:41:30.399Z,998.14
2019-04-03T11:42:30.550Z,998.16
2019-04-03T11:43:31.433Z,998.14
2019-04-03T11:44:30.047Z,998.08
2019-04-03T11:45:29.951Z,998.06
2019-04-03T11:46:29.856Z,998.03
2019-04-03T11:47:30.117Z,998.05
2019-04-03T11:48:29.670Z,998.05
2019-04-03T11:49:29.573Z,998.04
2019-04-03T11:50:29.479Z,998.00
2019-04-03T11:51:30.163Z,998.01
2019-04-03T11:52:29.289Z,998.02
2019-04-03T11:53:29.237Z,997.92
2019-04-03T11:54:29.099Z,997.98
2019-04-03T11:55:29.003Z,997.98
2019-04-03T11:56:28.912Z,997.96
2019-04-03T11:57:28.816Z,997.95
2019-04-03T11:58:28.759Z,997.94
2019-04-03T11:59:28.627Z,997.90
2019-04-03T12:00:28.757Z,997.84
2019-04-03T12:01:28.809Z,997.88
2019-04-03T12:02:28.384Z,997.89
2019-04-03T12:03:28.308Z,997.88
2019-04-03T12:04:28.156Z,997.73
2019-04-03T12:05:28.187Z,997.77
2019-04-03T12:06:27.963Z,997.75
2019-04-03T12:07:28.237Z,997.75
2019-04-03T12:08:28.514Z,997.76
2019-04-03T12:09:29.214Z,997.77
2019-04-03T12:10:27.590Z,997.75